sensor_id;sensor_type;location;lat;lon;timestamp;P1;durP1;ratioP1;P2;durP2;ratioP2
33553;SDS011;19885;42.208;24.952;2022-10-31T00:02:03;10.13;;;4.00;;
33553;SDS011;19885;42.208;24.952;2022-10-31T00:04:29;13.97;;;4.50;;
33553;SDS011;19885;42.208;24.952;2022-10-31T00:06:55;5.43;;;2.93;;
33553;SDS011;19885;42.208;24.952;2022-10-31T00:09:20;13.17;;;3.23;;
33553;SDS011;19885;42.208;24.952;2022-10-31T00:11:46;4.73;;;3.30;;
33553;SDS011;19885;42.208;24.952;2022-10-31T00:14:11;9.90;;;4.60;;
33553;SDS011;19885;42.208;24.952;2022-10-31T00:16:36;5.07;;;3.10;;
33553;SDS011;19885;42.208;24.952;2022-10-31T00:19:04;6.97;;;2.70;;
33553;SDS011;19885;42.208;24.952;2022-10-31T00:21:31;9.50;;;3.07;;
33553;SDS011;19885;42.208;24.952;2022-10-31T00:23:57;7.27;;;3.10;;
33553;SDS011;19885;42.208;24.952;2022-10-31T00:26:24;8.23;;;3.60;;
33553;SDS011;19885;42.208;24.952;2022-10-31T00:28:49;6.87;;;4.40;;
33553;SDS011;19885;42.208;24.952;2022-10-31T00:31:16;6.53;;;3.30;;
33553;SDS011;19885;42.208;24.952;2022-10-31T00:33:41;9.47;;;3.93;;
33553;SDS011;19885;42.208;24.952;2022-10-31T00:36:07;7.80;;;4.20;;
33553;SDS011;19885;42.208;24.952;2022-10-31T00:38:37;24.53;;;6.33;;
33553;SDS011;19885;42.208;24.952;2022-10-31T00:41:03;17.23;;;5.43;;
33553;SDS011;19885;42.208;24.952;2022-10-31T00:43:28;15.90;;;5.13;;
33553;SDS011;19885;42.208;24.952;2022-10-31T00:45:54;21.87;;;5.97;;
33553;SDS011;19885;42.208;24.952;2022-10-31T00:48:19;19.67;;;5.73;;
33553;SDS011;19885;42.208;24.952;2022-10-31T00:50:44;17.47;;;5.67;;
33553;SDS011;19885;42.208;24.952;2022-10-31T00:53:10;17.37;;;4.90;;
33553;SDS011;19885;42.208;24.952;2022-10-31T00:55:35;9.67;;;4.63;;
33553;SDS011;19885;42.208;24.952;2022-10-31T00:58:01;11.90;;;5.03;;
33553;SDS011;19885;42.208;24.952;2022-10-31T01:00:26;12.87;;;4.30;;
33553;SDS011;19885;42.208;24.952;2022-10-31T01:02:52;10.37;;;3.60;;
33553;SDS011;19885;42.208;24.952;2022-10-31T01:05:17;10.57;;;4.53;;
33553;SDS011;19885;42.208;24.952;2022-10-31T01:07:43;7.03;;;2.80;;
33553;SDS011;19885;42.208;24.952;2022-10-31T01:10:09;16.17;;;4.57;;
33553;SDS011;19885;42.208;24.952;2022-10-31T01:12:45;9.80;;;3.77;;
33553;SDS011;19885;42.208;24.952;2022-10-31T01:15:13;9.47;;;4.23;;
33553;SDS011;19885;42.208;24.952;2022-10-31T01:17:40;7.70;;;4.20;;
33553;SDS011;19885;42.208;24.952;2022-10-31T01:20:06;21.03;;;5.10;;
33553;SDS011;19885;42.208;24.952;2022-10-31T01:22:33;11.07;;;4.17;;
33553;SDS011;19885;42.208;24.952;2022-10-31T01:24:59;26.53;;;5.43;;
33553;SDS011;19885;42.208;24.952;2022-10-31T01:27:24;12.63;;;4.70;;
33553;SDS011;19885;42.208;24.952;2022-10-31T01:29:50;11.17;;;4.37;;
33553;SDS011;19885;42.208;24.952;2022-10-31T01:32:15;24.10;;;4.27;;
33553;SDS011;19885;42.208;24.952;2022-10-31T01:34:41;14.33;;;3.47;;
33553;SDS011;19885;42.208;24.952;2022-10-31T01:37:06;7.97;;;3.13;;
33553;SDS011;19885;42.208;24.952;2022-10-31T01:39:32;3.10;;;2.80;;
33553;SDS011;19885;42.208;24.952;2022-10-31T01:41:57;8.73;;;3.13;;
33553;SDS011;19885;42.208;24.952;2022-10-31T01:46:52;5.77;;;2.47;;
33553;SDS011;19885;42.208;24.952;2022-10-31T01:54:35;8.90;;;3.17;;
33553;SDS011;19885;42.208;24.952;2022-10-31T01:57:05;4.23;;;3.10;;
33553;SDS011;19885;42.208;24.952;2022-10-31T01:59:34;5.67;;;2.80;;
33553;SDS011;19885;42.208;24.952;2022-10-31T02:02:05;11.17;;;3.60;;
33553;SDS011;19885;42.208;24.952;2022-10-31T02:04:31;5.93;;;3.33;;
33553;SDS011;19885;42.208;24.952;2022-10-31T02:07:07;9.10;;;3.07;;
33553;SDS011;19885;42.208;24.952;2022-10-31T02:09:36;11.93;;;3.73;;
33553;SDS011;19885;42.208;24.952;2022-10-31T02:12:03;5.60;;;2.80;;
33553;SDS011;19885;42.208;24.952;2022-10-31T02:14:30;8.27;;;3.63;;
33553;SDS011;19885;42.208;24.952;2022-10-31T02:16:56;3.90;;;2.90;;
33553;SDS011;19885;42.208;24.952;2022-10-31T02:19:45;3.40;;;2.30;;
33553;SDS011;19885;42.208;24.952;2022-10-31T02:30:16;5.27;;;3.10;;
33553;SDS011;19885;42.208;24.952;2022-10-31T02:44:00;3.30;;;2.40;;
33553;SDS011;19885;42.208;24.952;2022-10-31T02:49:35;13.60;;;4.07;;
33553;SDS011;19885;42.208;24.952;2022-10-31T02:52:19;4.63;;;2.83;;
33553;SDS011;19885;42.208;24.952;2022-10-31T02:54:50;3.00;;;1.93;;
33553;SDS011;19885;42.208;24.952;2022-10-31T02:57:18;5.17;;;2.87;;
33553;SDS011;19885;42.208;24.952;2022-10-31T02:59:48;10.67;;;3.27;;
33553;SDS011;19885;42.208;24.952;2022-10-31T03:05:14;6.37;;;3.10;;
33553;SDS011;19885;42.208;24.952;2022-10-31T03:08:06;6.17;;;3.23;;
33553;SDS011;19885;42.208;24.952;2022-10-31T03:16:08;8.00;;;2.80;;
33553;SDS011;19885;42.208;24.952;2022-10-31T03:19:05;4.80;;;2.73;;
33553;SDS011;19885;42.208;24.952;2022-10-31T03:21:42;6.87;;;2.90;;
33553;SDS011;19885;42.208;24.952;2022-10-31T03:24:15;7.00;;;2.77;;
33553;SDS011;19885;42.208;24.952;2022-10-31T03:26:42;5.40;;;3.00;;
33553;SDS011;19885;42.208;24.952;2022-10-31T03:29:13;4.90;;;2.87;;
33553;SDS011;19885;42.208;24.952;2022-10-31T03:34:23;7.13;;;3.20;;
33553;SDS011;19885;42.208;24.952;2022-10-31T03:36:49;5.47;;;3.30;;
33553;SDS011;19885;42.208;24.952;2022-10-31T03:39:17;7.43;;;2.97;;
33553;SDS011;19885;42.208;24.952;2022-10-31T03:41:47;4.30;;;2.80;;
33553;SDS011;19885;42.208;24.952;2022-10-31T03:44:20;3.93;;;3.17;;
33553;SDS011;19885;42.208;24.952;2022-10-31T03:46:48;5.27;;;2.77;;
33553;SDS011;19885;42.208;24.952;2022-10-31T03:49:14;14.03;;;2.97;;
33553;SDS011;19885;42.208;24.952;2022-10-31T03:51:49;9.80;;;3.67;;
33553;SDS011;19885;42.208;24.952;2022-10-31T03:57:15;4.70;;;2.67;;
33553;SDS011;19885;42.208;24.952;2022-10-31T03:59:53;5.83;;;3.00;;
33553;SDS011;19885;42.208;24.952;2022-10-31T04:02:29;8.13;;;3.23;;
33553;SDS011;19885;42.208;24.952;2022-10-31T04:04:58;4.20;;;2.60;;
33553;SDS011;19885;42.208;24.952;2022-10-31T04:07:25;6.10;;;2.60;;
33553;SDS011;19885;42.208;24.952;2022-10-31T04:09:55;12.57;;;3.63;;
33553;SDS011;19885;42.208;24.952;2022-10-31T04:12:22;30.43;;;6.33;;
33553;SDS011;19885;42.208;24.952;2022-10-31T04:14:51;7.50;;;2.90;;
33553;SDS011;19885;42.208;24.952;2022-10-31T04:17:18;4.83;;;3.30;;
33553;SDS011;19885;42.208;24.952;2022-10-31T04:19:47;5.73;;;2.60;;
33553;SDS011;19885;42.208;24.952;2022-10-31T04:22:12;5.77;;;2.73;;
33553;SDS011;19885;42.208;24.952;2022-10-31T04:24:39;5.47;;;3.27;;
33553;SDS011;19885;42.208;24.952;2022-10-31T04:27:05;10.03;;;2.97;;
33553;SDS011;19885;42.208;24.952;2022-10-31T04:29:32;11.10;;;2.57;;
33553;SDS011;19885;42.208;24.952;2022-10-31T04:31:58;7.43;;;2.90;;
33553;SDS011;19885;42.208;24.952;2022-10-31T04:34:23;5.60;;;2.97;;
33553;SDS011;19885;42.208;24.952;2022-10-31T04:36:49;4.23;;;2.73;;
33553;SDS011;19885;42.208;24.952;2022-10-31T04:39:14;13.20;;;3.23;;
33553;SDS011;19885;42.208;24.952;2022-10-31T04:41:40;12.53;;;3.63;;
33553;SDS011;19885;42.208;24.952;2022-10-31T04:44:05;8.97;;;3.23;;
33553;SDS011;19885;42.208;24.952;2022-10-31T04:46:31;7.53;;;3.70;;
33553;SDS011;19885;42.208;24.952;2022-10-31T04:48:56;9.40;;;3.50;;
33553;SDS011;19885;42.208;24.952;2022-10-31T04:51:22;15.97;;;3.27;;
33553;SDS011;19885;42.208;24.952;2022-10-31T04:53:47;16.67;;;3.97;;
33553;SDS011;19885;42.208;24.952;2022-10-31T04:56:13;10.13;;;3.80;;
33553;SDS011;19885;42.208;24.952;2022-10-31T04:58:38;8.93;;;3.73;;
33553;SDS011;19885;42.208;24.952;2022-10-31T05:01:04;6.03;;;3.00;;
33553;SDS011;19885;42.208;24.952;2022-10-31T05:03:29;4.97;;;2.93;;
33553;SDS011;19885;42.208;24.952;2022-10-31T05:05:55;8.37;;;3.60;;
33553;SDS011;19885;42.208;24.952;2022-10-31T05:08:21;11.30;;;3.30;;
33553;SDS011;19885;42.208;24.952;2022-10-31T05:10:46;12.80;;;4.00;;
33553;SDS011;19885;42.208;24.952;2022-10-31T05:13:13;8.00;;;2.93;;
33553;SDS011;19885;42.208;24.952;2022-10-31T05:15:41;8.87;;;3.63;;
33553;SDS011;19885;42.208;24.952;2022-10-31T05:18:07;4.83;;;2.60;;
33553;SDS011;19885;42.208;24.952;2022-10-31T05:20:35;7.20;;;3.33;;
33553;SDS011;19885;42.208;24.952;2022-10-31T05:23:00;4.37;;;2.97;;
33553;SDS011;19885;42.208;24.952;2022-10-31T05:25:27;10.07;;;4.47;;
33553;SDS011;19885;42.208;24.952;2022-10-31T05:27:53;10.90;;;3.50;;
33553;SDS011;19885;42.208;24.952;2022-10-31T05:30:21;12.20;;;3.90;;
33553;SDS011;19885;42.208;24.952;2022-10-31T05:32:49;9.47;;;3.27;;
33553;SDS011;19885;42.208;24.952;2022-10-31T05:35:25;8.03;;;3.77;;
33553;SDS011;19885;42.208;24.952;2022-10-31T05:37:52;10.43;;;4.20;;
33553;SDS011;19885;42.208;24.952;2022-10-31T05:40:18;7.20;;;3.40;;
33553;SDS011;19885;42.208;24.952;2022-10-31T05:42:45;5.23;;;3.60;;
33553;SDS011;19885;42.208;24.952;2022-10-31T05:45:13;19.87;;;5.07;;
33553;SDS011;19885;42.208;24.952;2022-10-31T05:47:40;18.43;;;4.03;;
33553;SDS011;19885;42.208;24.952;2022-10-31T05:50:05;20.27;;;3.90;;
33553;SDS011;19885;42.208;24.952;2022-10-31T05:52:31;12.10;;;3.47;;
33553;SDS011;19885;42.208;24.952;2022-10-31T05:54:57;6.70;;;2.73;;
33553;SDS011;19885;42.208;24.952;2022-10-31T05:57:23;7.03;;;3.07;;
33553;SDS011;19885;42.208;24.952;2022-10-31T05:59:48;11.13;;;3.50;;
33553;SDS011;19885;42.208;24.952;2022-10-31T06:02:17;5.23;;;2.50;;
33553;SDS011;19885;42.208;24.952;2022-10-31T06:04:46;6.50;;;3.70;;
33553;SDS011;19885;42.208;24.952;2022-10-31T06:07:11;10.50;;;4.10;;
33553;SDS011;19885;42.208;24.952;2022-10-31T06:09:37;10.90;;;5.20;;
33553;SDS011;19885;42.208;24.952;2022-10-31T06:12:02;16.27;;;4.27;;
33553;SDS011;19885;42.208;24.952;2022-10-31T06:14:28;12.67;;;3.23;;
33553;SDS011;19885;42.208;24.952;2022-10-31T06:16:54;31.13;;;4.77;;
33553;SDS011;19885;42.208;24.952;2022-10-31T06:19:20;7.57;;;4.00;;
33553;SDS011;19885;42.208;24.952;2022-10-31T06:21:45;13.90;;;4.33;;
33553;SDS011;19885;42.208;24.952;2022-10-31T06:24:11;10.33;;;5.00;;
33553;SDS011;19885;42.208;24.952;2022-10-31T06:26:36;13.90;;;3.53;;
33553;SDS011;19885;42.208;24.952;2022-10-31T06:29:02;5.37;;;2.93;;
33553;SDS011;19885;42.208;24.952;2022-10-31T06:31:27;4.57;;;3.03;;
33553;SDS011;19885;42.208;24.952;2022-10-31T06:33:53;8.13;;;3.07;;
33553;SDS011;19885;42.208;24.952;2022-10-31T06:36:18;12.13;;;3.50;;
33553;SDS011;19885;42.208;24.952;2022-10-31T06:38:44;8.03;;;3.97;;
33553;SDS011;19885;42.208;24.952;2022-10-31T06:41:09;7.63;;;3.33;;
33553;SDS011;19885;42.208;24.952;2022-10-31T06:43:34;9.23;;;3.60;;
33553;SDS011;19885;42.208;24.952;2022-10-31T06:46:03;6.33;;;2.87;;
33553;SDS011;19885;42.208;24.952;2022-10-31T06:48:30;8.10;;;3.57;;
33553;SDS011;19885;42.208;24.952;2022-10-31T06:50:59;7.17;;;2.80;;
33553;SDS011;19885;42.208;24.952;2022-10-31T06:53:25;9.10;;;3.23;;
33553;SDS011;19885;42.208;24.952;2022-10-31T06:55:57;10.67;;;3.63;;
33553;SDS011;19885;42.208;24.952;2022-10-31T06:58:23;9.32;;;4.25;;
33553;SDS011;19885;42.208;24.952;2022-10-31T07:00:49;8.17;;;4.13;;
33553;SDS011;19885;42.208;24.952;2022-10-31T07:03:14;14.27;;;4.17;;
33553;SDS011;19885;42.208;24.952;2022-10-31T07:05:40;11.87;;;3.97;;
33553;SDS011;19885;42.208;24.952;2022-10-31T07:08:07;11.20;;;3.57;;
33553;SDS011;19885;42.208;24.952;2022-10-31T07:10:35;4.10;;;2.40;;
33553;SDS011;19885;42.208;24.952;2022-10-31T07:13:02;7.03;;;3.03;;
33553;SDS011;19885;42.208;24.952;2022-10-31T07:15:32;5.73;;;2.50;;
33553;SDS011;19885;42.208;24.952;2022-10-31T07:18:02;7.17;;;2.73;;
33553;SDS011;19885;42.208;24.952;2022-10-31T07:20:30;6.30;;;1.97;;
33553;SDS011;19885;42.208;24.952;2022-10-31T07:22:56;7.60;;;3.03;;
33553;SDS011;19885;42.208;24.952;2022-10-31T07:25:22;6.07;;;3.07;;
33553;SDS011;19885;42.208;24.952;2022-10-31T07:27:48;8.27;;;3.83;;
33553;SDS011;19885;42.208;24.952;2022-10-31T07:30:14;10.47;;;2.80;;
33553;SDS011;19885;42.208;24.952;2022-10-31T07:32:48;3.38;;;2.30;;
33553;SDS011;19885;42.208;24.952;2022-10-31T07:35:16;8.27;;;3.20;;
33553;SDS011;19885;42.208;24.952;2022-10-31T07:37:45;8.55;;;2.40;;
33553;SDS011;19885;42.208;24.952;2022-10-31T07:40:11;4.80;;;2.00;;
33553;SDS011;19885;42.208;24.952;2022-10-31T07:42:38;12.43;;;2.28;;
33553;SDS011;19885;42.208;24.952;2022-10-31T07:45:06;5.63;;;2.63;;
33553;SDS011;19885;42.208;24.952;2022-10-31T07:47:42;8.85;;;2.47;;
33553;SDS011;19885;42.208;24.952;2022-10-31T07:50:10;8.00;;;2.28;;
33553;SDS011;19885;42.208;24.952;2022-10-31T07:52:38;7.45;;;2.15;;
33553;SDS011;19885;42.208;24.952;2022-10-31T07:55:03;10.02;;;3.05;;
33553;SDS011;19885;42.208;24.952;2022-10-31T07:57:30;5.70;;;2.28;;
33553;SDS011;19885;42.208;24.952;2022-10-31T07:59:55;6.78;;;2.10;;
33553;SDS011;19885;42.208;24.952;2022-10-31T08:02:21;4.72;;;2.08;;
33553;SDS011;19885;42.208;24.952;2022-10-31T08:04:48;3.47;;;2.35;;
33553;SDS011;19885;42.208;24.952;2022-10-31T08:07:14;5.43;;;2.53;;
33553;SDS011;19885;42.208;24.952;2022-10-31T08:09:39;6.32;;;2.22;;
33553;SDS011;19885;42.208;24.952;2022-10-31T08:12:05;5.15;;;2.25;;
33553;SDS011;19885;42.208;24.952;2022-10-31T08:14:30;6.05;;;2.85;;
33553;SDS011;19885;42.208;24.952;2022-10-31T08:16:56;13.65;;;2.67;;
33553;SDS011;19885;42.208;24.952;2022-10-31T08:19:21;4.22;;;2.22;;
33553;SDS011;19885;42.208;24.952;2022-10-31T08:21:50;7.25;;;2.17;;
33553;SDS011;19885;42.208;24.952;2022-10-31T08:24:16;11.75;;;2.13;;
33553;SDS011;19885;42.208;24.952;2022-10-31T08:26:42;5.53;;;2.25;;
33553;SDS011;19885;42.208;24.952;2022-10-31T08:29:07;4.80;;;1.83;;
33553;SDS011;19885;42.208;24.952;2022-10-31T08:31:32;5.70;;;2.17;;
33553;SDS011;19885;42.208;24.952;2022-10-31T08:33:58;4.13;;;2.10;;
33553;SDS011;19885;42.208;24.952;2022-10-31T08:36:23;10.07;;;2.20;;
33553;SDS011;19885;42.208;24.952;2022-10-31T08:38:49;5.93;;;2.33;;
33553;SDS011;19885;42.208;24.952;2022-10-31T08:41:14;7.28;;;2.17;;
33553;SDS011;19885;42.208;24.952;2022-10-31T08:43:40;4.10;;;1.77;;
33553;SDS011;19885;42.208;24.952;2022-10-31T08:46:05;3.97;;;1.75;;
33553;SDS011;19885;42.208;24.952;2022-10-31T08:48:31;3.40;;;2.08;;
33553;SDS011;19885;42.208;24.952;2022-10-31T08:50:58;5.53;;;2.10;;
33553;SDS011;19885;42.208;24.952;2022-10-31T08:53:24;11.07;;;2.47;;
33553;SDS011;19885;42.208;24.952;2022-10-31T08:55:53;7.45;;;2.80;;
33553;SDS011;19885;42.208;24.952;2022-10-31T08:58:22;4.40;;;2.35;;
33553;SDS011;19885;42.208;24.952;2022-10-31T09:00:49;6.10;;;2.08;;
33553;SDS011;19885;42.208;24.952;2022-10-31T09:03:17;6.82;;;2.78;;
33553;SDS011;19885;42.208;24.952;2022-10-31T09:05:44;5.30;;;1.90;;
33553;SDS011;19885;42.208;24.952;2022-10-31T09:08:10;6.47;;;2.45;;
33553;SDS011;19885;42.208;24.952;2022-10-31T09:10:36;3.78;;;1.95;;
33553;SDS011;19885;42.208;24.952;2022-10-31T09:13:04;9.57;;;2.75;;
33553;SDS011;19885;42.208;24.952;2022-10-31T09:15:32;3.95;;;1.58;;
33553;SDS011;19885;42.208;24.952;2022-10-31T09:17:59;6.00;;;2.20;;
33553;SDS011;19885;42.208;24.952;2022-10-31T09:20:26;2.28;;;1.70;;
33553;SDS011;19885;42.208;24.952;2022-10-31T09:22:58;9.23;;;2.05;;
33553;SDS011;19885;42.208;24.952;2022-10-31T09:25:25;5.68;;;1.98;;
33553;SDS011;19885;42.208;24.952;2022-10-31T09:27:55;7.93;;;2.20;;
33553;SDS011;19885;42.208;24.952;2022-10-31T09:30:24;5.25;;;2.13;;
33553;SDS011;19885;42.208;24.952;2022-10-31T09:33:04;1.92;;;1.40;;
33553;SDS011;19885;42.208;24.952;2022-10-31T09:35:34;4.75;;;1.83;;
33553;SDS011;19885;42.208;24.952;2022-10-31T09:38:00;3.50;;;2.22;;
33553;SDS011;19885;42.208;24.952;2022-10-31T09:40:37;5.05;;;2.22;;
33553;SDS011;19885;42.208;24.952;2022-10-31T09:51:20;7.43;;;1.95;;
33553;SDS011;19885;42.208;24.952;2022-10-31T09:54:03;6.60;;;2.25;;
33553;SDS011;19885;42.208;24.952;2022-10-31T09:56:30;2.10;;;1.38;;
33553;SDS011;19885;42.208;24.952;2022-10-31T09:58:58;4.78;;;2.10;;
33553;SDS011;19885;42.208;24.952;2022-10-31T10:04:20;5.57;;;2.05;;
33553;SDS011;19885;42.208;24.952;2022-10-31T10:06:56;19.75;;;3.03;;
33553;SDS011;19885;42.208;24.952;2022-10-31T10:09:26;11.45;;;2.53;;
33553;SDS011;19885;42.208;24.952;2022-10-31T10:12:00;2.85;;;1.65;;
33553;SDS011;19885;42.208;24.952;2022-10-31T10:15:00;4.95;;;2.13;;
33553;SDS011;19885;42.208;24.952;2022-10-31T10:17:32;5.70;;;1.85;;
33553;SDS011;19885;42.208;24.952;2022-10-31T10:20:18;9.02;;;2.80;;
33553;SDS011;19885;42.208;24.952;2022-10-31T10:22:54;4.13;;;1.75;;
33553;SDS011;19885;42.208;24.952;2022-10-31T10:25:41;5.03;;;1.85;;
33553;SDS011;19885;42.208;24.952;2022-10-31T10:30:46;3.13;;;1.85;;
33553;SDS011;19885;42.208;24.952;2022-10-31T10:33:23;7.50;;;2.05;;
33553;SDS011;19885;42.208;24.952;2022-10-31T10:35:57;6.22;;;1.70;;
33553;SDS011;19885;42.208;24.952;2022-10-31T10:41:14;2.88;;;1.60;;
33553;SDS011;19885;42.208;24.952;2022-10-31T10:43:43;5.78;;;2.05;;
33553;SDS011;19885;42.208;24.952;2022-10-31T10:46:19;10.95;;;2.72;;
33553;SDS011;19885;42.208;24.952;2022-10-31T10:49:19;6.00;;;2.08;;
33553;SDS011;19885;42.208;24.952;2022-10-31T10:51:59;4.30;;;2.03;;
33553;SDS011;19885;42.208;24.952;2022-10-31T10:57:21;14.57;;;2.38;;
33553;SDS011;19885;42.208;24.952;2022-10-31T10:59:50;5.40;;;2.28;;
33553;SDS011;19885;42.208;24.952;2022-10-31T11:02:17;3.92;;;1.80;;
33553;SDS011;19885;42.208;24.952;2022-10-31T11:04:45;10.30;;;1.83;;
33553;SDS011;19885;42.208;24.952;2022-10-31T11:07:17;3.20;;;1.50;;
33553;SDS011;19885;42.208;24.952;2022-10-31T11:09:42;7.80;;;1.80;;
33553;SDS011;19885;42.208;24.952;2022-10-31T11:12:21;6.50;;;2.20;;
33553;SDS011;19885;42.208;24.952;2022-10-31T11:14:57;17.13;;;2.15;;
33553;SDS011;19885;42.208;24.952;2022-10-31T11:17:29;3.08;;;2.00;;
33553;SDS011;19885;42.208;24.952;2022-10-31T11:20:05;7.93;;;2.00;;
33553;SDS011;19885;42.208;24.952;2022-10-31T11:22:48;7.95;;;1.95;;
33553;SDS011;19885;42.208;24.952;2022-10-31T11:25:23;4.97;;;1.75;;
33553;SDS011;19885;42.208;24.952;2022-10-31T11:28:03;2.58;;;1.42;;
33553;SDS011;19885;42.208;24.952;2022-10-31T11:30:30;2.65;;;2.05;;
33553;SDS011;19885;42.208;24.952;2022-10-31T11:33:00;4.78;;;1.67;;
33553;SDS011;19885;42.208;24.952;2022-10-31T11:35:26;5.75;;;1.20;;
33553;SDS011;19885;42.208;24.952;2022-10-31T11:37:53;5.85;;;1.38;;
33553;SDS011;19885;42.208;24.952;2022-10-31T11:40:24;4.32;;;1.90;;
33553;SDS011;19885;42.208;24.952;2022-10-31T11:42:53;3.47;;;1.70;;
33553;SDS011;19885;42.208;24.952;2022-10-31T11:47:49;5.85;;;2.17;;
33553;SDS011;19885;42.208;24.952;2022-10-31T11:50:21;2.53;;;1.58;;
33553;SDS011;19885;42.208;24.952;2022-10-31T11:52:51;4.63;;;1.55;;
33553;SDS011;19885;42.208;24.952;2022-10-31T11:57:58;4.18;;;1.60;;
33553;SDS011;19885;42.208;24.952;2022-10-31T12:00:25;4.82;;;1.33;;
33553;SDS011;19885;42.208;24.952;2022-10-31T12:08:23;7.90;;;2.15;;
33553;SDS011;19885;42.208;24.952;2022-10-31T12:13:40;3.80;;;1.55;;
33553;SDS011;19885;42.208;24.952;2022-10-31T12:16:21;13.38;;;2.08;;
33553;SDS011;19885;42.208;24.952;2022-10-31T12:19:06;5.13;;;1.50;;
33553;SDS011;19885;42.208;24.952;2022-10-31T12:24:38;4.95;;;1.88;;
33553;SDS011;19885;42.208;24.952;2022-10-31T12:27:35;5.45;;;1.70;;
33553;SDS011;19885;42.208;24.952;2022-10-31T12:30:13;3.67;;;1.30;;
33553;SDS011;19885;42.208;24.952;2022-10-31T12:38:33;4.45;;;1.45;;
33553;SDS011;19885;42.208;24.952;2022-10-31T12:47:40;1.90;;;1.35;;
33553;SDS011;19885;42.208;24.952;2022-10-31T12:50:27;1.38;;;1.10;;
33553;SDS011;19885;42.208;24.952;2022-10-31T12:53:33;2.70;;;1.23;;
33553;SDS011;19885;42.208;24.952;2022-10-31T12:58:56;2.50;;;1.33;;
33553;SDS011;19885;42.208;24.952;2022-10-31T13:01:29;1.63;;;1.15;;
33553;SDS011;19885;42.208;24.952;2022-10-31T13:04:12;2.70;;;1.45;;
33553;SDS011;19885;42.208;24.952;2022-10-31T13:06:47;2.53;;;1.20;;
33553;SDS011;19885;42.208;24.952;2022-10-31T13:09:17;6.75;;;2.38;;
33553;SDS011;19885;42.208;24.952;2022-10-31T13:11:47;8.93;;;1.80;;
33553;SDS011;19885;42.208;24.952;2022-10-31T13:14:23;11.68;;;1.95;;
33553;SDS011;19885;42.208;24.952;2022-10-31T13:16:52;3.72;;;1.80;;
33553;SDS011;19885;42.208;24.952;2022-10-31T13:19:27;14.40;;;2.97;;
33553;SDS011;19885;42.208;24.952;2022-10-31T13:27:34;30.67;;;13.35;;
33553;SDS011;19885;42.208;24.952;2022-10-31T13:30:13;55.53;;;23.00;;
33553;SDS011;19885;42.208;24.952;2022-10-31T13:32:41;50.95;;;20.15;;
33553;SDS011;19885;42.208;24.952;2022-10-31T13:35:31;43.72;;;14.80;;
33553;SDS011;19885;42.208;24.952;2022-10-31T13:38:48;28.52;;;12.80;;
33553;SDS011;19885;42.208;24.952;2022-10-31T13:41:00;26.23;;;8.98;;
33553;SDS011;19885;42.208;24.952;2022-10-31T13:46:34;12.38;;;4.95;;
33553;SDS011;19885;42.208;24.952;2022-10-31T13:49:02;12.90;;;3.20;;
33553;SDS011;19885;42.208;24.952;2022-10-31T13:51:29;4.97;;;2.67;;
33553;SDS011;19885;42.208;24.952;2022-10-31T13:56:28;6.65;;;2.28;;
33553;SDS011;19885;42.208;24.952;2022-10-31T14:01:31;5.00;;;1.50;;
33553;SDS011;19885;42.208;24.952;2022-10-31T14:04:02;4.93;;;2.22;;
33553;SDS011;19885;42.208;24.952;2022-10-31T14:12:33;5.03;;;2.40;;
33553;SDS011;19885;42.208;24.952;2022-10-31T14:18:06;14.63;;;3.10;;
33553;SDS011;19885;42.208;24.952;2022-10-31T14:20:43;7.90;;;1.95;;
33553;SDS011;19885;42.208;24.952;2022-10-31T14:23:56;11.52;;;3.03;;
33553;SDS011;19885;42.208;24.952;2022-10-31T14:26:33;7.85;;;2.17;;
33553;SDS011;19885;42.208;24.952;2022-10-31T14:28:54;10.65;;;3.42;;
33553;SDS011;19885;42.208;24.952;2022-10-31T14:50:53;14.82;;;3.20;;
33553;SDS011;19885;42.208;24.952;2022-10-31T14:53:29;8.90;;;2.60;;
33553;SDS011;19885;42.208;24.952;2022-10-31T14:55:58;22.83;;;3.58;;
33553;SDS011;19885;42.208;24.952;2022-10-31T14:58:40;13.98;;;3.28;;
33553;SDS011;19885;42.208;24.952;2022-10-31T15:01:15;20.10;;;3.55;;
33553;SDS011;19885;42.208;24.952;2022-10-31T15:04:00;19.15;;;3.90;;
33553;SDS011;19885;42.208;24.952;2022-10-31T15:06:30;18.50;;;4.38;;
33553;SDS011;19885;42.208;24.952;2022-10-31T15:11:48;28.73;;;4.05;;
33553;SDS011;19885;42.208;24.952;2022-10-31T15:16:52;22.23;;;5.13;;
33553;SDS011;19885;42.208;24.952;2022-10-31T15:19:20;18.23;;;3.47;;
33553;SDS011;19885;42.208;24.952;2022-10-31T15:21:50;30.52;;;4.15;;
33553;SDS011;19885;42.208;24.952;2022-10-31T15:24:17;27.52;;;4.55;;
33553;SDS011;19885;42.208;24.952;2022-10-31T15:26:50;11.75;;;3.08;;
33553;SDS011;19885;42.208;24.952;2022-10-31T15:29:21;30.20;;;5.57;;
33553;SDS011;19885;42.208;24.952;2022-10-31T15:34:22;10.23;;;3.65;;
33553;SDS011;19885;42.208;24.952;2022-10-31T15:36:58;33.80;;;4.95;;
33553;SDS011;19885;42.208;24.952;2022-10-31T15:39:23;23.95;;;4.60;;
33553;SDS011;19885;42.208;24.952;2022-10-31T15:41:56;20.05;;;4.35;;
33553;SDS011;19885;42.208;24.952;2022-10-31T15:44:36;20.65;;;4.45;;
33553;SDS011;19885;42.208;24.952;2022-10-31T15:47:11;18.52;;;5.97;;
33553;SDS011;19885;42.208;24.952;2022-10-31T15:55:14;14.93;;;4.00;;
33553;SDS011;19885;42.208;24.952;2022-10-31T15:57:43;14.93;;;4.13;;
33553;SDS011;19885;42.208;24.952;2022-10-31T16:00:28;14.48;;;2.97;;
33553;SDS011;19885;42.208;24.952;2022-10-31T16:05:48;15.65;;;3.88;;
33553;SDS011;19885;42.208;24.952;2022-10-31T16:08:51;7.82;;;2.83;;
33553;SDS011;19885;42.208;24.952;2022-10-31T16:16:30;11.02;;;4.78;;
33553;SDS011;19885;42.208;24.952;2022-10-31T16:18:57;15.80;;;3.80;;
33553;SDS011;19885;42.208;24.952;2022-10-31T16:21:28;12.52;;;4.30;;
33553;SDS011;19885;42.208;24.952;2022-10-31T16:23:59;27.55;;;4.75;;
33553;SDS011;19885;42.208;24.952;2022-10-31T16:26:28;10.43;;;3.95;;
33553;SDS011;19885;42.208;24.952;2022-10-31T16:28:55;18.67;;;5.40;;
33553;SDS011;19885;42.208;24.952;2022-10-31T16:31:29;7.18;;;2.78;;
33553;SDS011;19885;42.208;24.952;2022-10-31T16:34:22;16.73;;;4.35;;
33553;SDS011;19885;42.208;24.952;2022-10-31T16:36:47;16.13;;;4.10;;
33553;SDS011;19885;42.208;24.952;2022-10-31T16:39:13;32.22;;;4.45;;
33553;SDS011;19885;42.208;24.952;2022-10-31T16:41:42;13.82;;;3.85;;
33553;SDS011;19885;42.208;24.952;2022-10-31T16:44:14;18.38;;;5.07;;
33553;SDS011;19885;42.208;24.952;2022-10-31T16:46:44;23.98;;;5.82;;
33553;SDS011;19885;42.208;24.952;2022-10-31T16:49:10;11.52;;;4.00;;
33553;SDS011;19885;42.208;24.952;2022-10-31T16:51:36;16.73;;;5.17;;
33553;SDS011;19885;42.208;24.952;2022-10-31T16:54:01;11.25;;;3.78;;
33553;SDS011;19885;42.208;24.952;2022-10-31T16:56:28;11.63;;;3.83;;
33553;SDS011;19885;42.208;24.952;2022-10-31T16:58:56;13.20;;;4.17;;
33553;SDS011;19885;42.208;24.952;2022-10-31T17:01:23;17.07;;;2.83;;
33553;SDS011;19885;42.208;24.952;2022-10-31T17:03:49;14.03;;;3.70;;
33553;SDS011;19885;42.208;24.952;2022-10-31T17:06:14;9.07;;;3.33;;
33553;SDS011;19885;42.208;24.952;2022-10-31T17:08:40;9.20;;;4.03;;
33553;SDS011;19885;42.208;24.952;2022-10-31T17:11:07;19.00;;;3.53;;
33553;SDS011;19885;42.208;24.952;2022-10-31T17:13:39;15.30;;;3.37;;
33553;SDS011;19885;42.208;24.952;2022-10-31T17:16:05;9.17;;;2.73;;
33553;SDS011;19885;42.208;24.952;2022-10-31T17:18:30;16.30;;;2.50;;
33553;SDS011;19885;42.208;24.952;2022-10-31T17:21:03;5.33;;;1.83;;
33553;SDS011;19885;42.208;24.952;2022-10-31T17:23:30;9.13;;;2.93;;